createdAt,value
2022-12-08T00:01:32.334Z,12.77
2022-12-08T00:04:00.998Z,11.93
2022-12-08T00:06:48.789Z,13.55
2022-12-08T00:09:23.472Z,11.98
2022-12-08T00:11:59.159Z,14.57
2022-12-08T00:14:30.341Z,11.82
2022-12-08T00:17:00.030Z,11.48
2022-12-08T00:19:28.807Z,11.23
2022-12-08T00:21:59.056Z,11.95
2022-12-08T00:24:33.305Z,12.73
2022-12-08T00:27:01.071Z,11.18
2022-12-08T00:29:29.335Z,12.30
2022-12-08T00:31:57.253Z,12.48
2022-12-08T00:34:25.237Z,11.50
2022-12-08T00:36:53.033Z,11.57
2022-12-08T00:39:21.089Z,11.40
2022-12-08T00:42:19.508Z,10.52
2022-12-08T00:44:48.034Z,11.52
2022-12-08T00:47:19.805Z,9.93
2022-12-08T00:49:50.093Z,10.95
2022-12-08T00:52:17.833Z,11.23
2022-12-08T00:54:45.599Z,11.15
2022-12-08T00:57:14.803Z,9.82
2022-12-08T00:59:42.629Z,13.15
2022-12-08T01:02:10.426Z,9.98
2022-12-08T01:04:40.628Z,11.32
2022-12-08T01:07:08.692Z,11.63
2022-12-08T01:09:36.588Z,9.25
2022-12-08T01:12:05.448Z,11.60
2022-12-08T01:14:34.736Z,13.07
2022-12-08T01:17:02.595Z,10.65
2022-12-08T01:19:31.020Z,10.18
2022-12-08T01:21:58.814Z,11.98
2022-12-08T01:24:26.729Z,13.02
2022-12-08T01:26:54.487Z,14.65
2022-12-08T01:29:22.285Z,11.82
2022-12-08T01:31:51.414Z,14.77
2022-12-08T01:34:19.218Z,14.23
2022-12-08T01:36:48.033Z,15.30
2022-12-08T01:39:18.163Z,13.88
2022-12-08T01:41:48.024Z,15.50
2022-12-08T01:44:55.106Z,15.63
2022-12-08T01:47:31.152Z,13.60
2022-12-08T01:49:59.527Z,15.20
2022-12-08T01:52:33.624Z,16.17
2022-12-08T01:55:04.880Z,15.68
2022-12-08T01:57:38.483Z,15.25
2022-12-08T02:00:09.767Z,17.17
2022-12-08T02:02:46.780Z,13.70
2022-12-08T02:05:15.152Z,14.57
2022-12-08T02:07:44.064Z,14.48
2022-12-08T02:10:15.129Z,14.98
2022-12-08T02:12:43.222Z,14.25
2022-12-08T02:15:14.859Z,14.13
2022-12-08T02:17:55.966Z,15.13
2022-12-08T02:20:37.664Z,14.10
2022-12-08T02:23:11.678Z,14.13
2022-12-08T02:25:47.849Z,13.85
2022-12-08T02:28:38.483Z,13.43
2022-12-08T02:31:18.662Z,14.70
2022-12-08T02:34:19.244Z,14.48
2022-12-08T02:37:09.226Z,15.23
2022-12-08T02:39:43.886Z,14.05
2022-12-08T02:42:21.732Z,13.05
2022-12-08T02:44:56.575Z,12.75
2022-12-08T02:47:27.490Z,12.57
2022-12-08T02:49:56.489Z,10.50
2022-12-08T02:52:43.225Z,13.05
2022-12-08T02:55:20.281Z,12.38
2022-12-08T02:58:18.134Z,11.65
2022-12-08T03:01:03.693Z,11.43
2022-12-08T03:03:42.608Z,10.68
2022-12-08T03:06:21.540Z,12.05
2022-12-08T03:08:56.391Z,12.30
2022-12-08T03:11:31.622Z,11.18
2022-12-08T03:14:02.840Z,10.40
2022-12-08T03:16:33.489Z,10.43
2022-12-08T03:19:11.714Z,11.05
2022-12-08T03:21:40.987Z,11.93
2022-12-08T03:24:11.765Z,13.20
2022-12-08T03:26:46.862Z,12.68
2022-12-08T03:29:15.243Z,10.68
2022-12-08T03:31:59.401Z,12.25
2022-12-08T03:34:30.905Z,11.52
2022-12-08T03:37:02.022Z,9.93
2022-12-08T03:39:31.254Z,9.90
2022-12-08T03:41:58.985Z,11.57
2022-12-08T03:44:26.932Z,9.95
2022-12-08T03:46:54.697Z,9.95
2022-12-08T03:49:22.515Z,10.05
2022-12-08T03:51:50.583Z,10.50
2022-12-08T03:54:18.526Z,10.48
2022-12-08T03:56:47.646Z,9.45
2022-12-08T03:59:15.506Z,9.50
2022-12-08T04:01:43.346Z,9.38
2022-12-08T04:04:11.517Z,10.00
2022-12-08T04:06:39.542Z,9.82
2022-12-08T04:09:07.363Z,9.75
2022-12-08T04:11:35.179Z,8.05
2022-12-08T04:14:04.477Z,7.80
2022-12-08T04:16:32.755Z,8.57
2022-12-08T04:19:00.633Z,7.72
2022-12-08T04:21:28.621Z,7.55
2022-12-08T04:24:01.018Z,8.45
2022-12-08T04:26:31.640Z,8.30
2022-12-08T04:28:59.414Z,7.78
2022-12-08T04:31:28.672Z,9.77
2022-12-08T04:33:56.589Z,8.50
2022-12-08T04:36:24.638Z,8.63
2022-12-08T04:38:52.440Z,8.27
2022-12-08T04:41:20.302Z,8.15
2022-12-08T04:43:48.044Z,8.63
2022-12-08T04:46:15.944Z,8.02
2022-12-08T04:48:45.221Z,8.25
2022-12-08T04:51:17.577Z,9.38
2022-12-08T04:53:46.958Z,8.32
2022-12-08T04:56:15.588Z,8.48
2022-12-08T04:58:46.228Z,7.32
2022-12-08T05:01:14.851Z,7.40
2022-12-08T05:03:42.976Z,8.40
2022-12-08T05:06:14.557Z,9.70
2022-12-08T05:08:42.593Z,7.80
2022-12-08T05:11:12.509Z,7.93
2022-12-08T05:13:40.710Z,8.98
2022-12-08T05:16:11.384Z,8.52
2022-12-08T05:18:40.316Z,9.68
2022-12-08T05:21:08.921Z,10.30
2022-12-08T05:23:38.517Z,9.90
2022-12-08T05:26:06.599Z,10.88
2022-12-08T05:28:42.998Z,10.38
2022-12-08T05:31:12.707Z,10.35
2022-12-08T05:33:41.544Z,10.98
2022-12-08T05:36:10.353Z,10.00
2022-12-08T05:38:39.878Z,10.43
2022-12-08T05:41:08.973Z,11.52
2022-12-08T05:43:37.413Z,11.30
2022-12-08T05:46:05.613Z,11.10
2022-12-08T05:48:33.738Z,13.73
2022-12-08T05:51:02.716Z,14.00
2022-12-08T05:53:31.867Z,16.63
2022-12-08T05:56:01.481Z,13.65
2022-12-08T05:58:30.587Z,14.63
2022-12-08T06:00:58.736Z,16.27
2022-12-08T06:03:26.938Z,15.65
2022-12-08T06:05:54.918Z,15.27
2022-12-08T06:08:22.876Z,15.13
2022-12-08T06:10:50.944Z,15.43
2022-12-08T06:13:20.127Z,16.80
2022-12-08T06:15:48.131Z,15.98
2022-12-08T06:18:15.918Z,16.70
2022-12-08T06:20:45.034Z,14.52
2022-12-08T06:23:13.355Z,16.35
2022-12-08T06:25:41.384Z,14.75
2022-12-08T06:28:09.322Z,18.02
2022-12-08T06:30:38.954Z,14.98
2022-12-08T06:33:06.839Z,15.27
2022-12-08T06:35:34.845Z,15.80
2022-12-08T06:38:02.812Z,13.88
2022-12-08T06:40:30.684Z,13.30
2022-12-08T06:42:58.658Z,13.27
2022-12-08T06:45:26.744Z,13.90
2022-12-08T06:47:55.940Z,11.88
2022-12-08T06:50:23.736Z,12.95
2022-12-08T06:53:02.779Z,10.90
2022-12-08T06:55:57.900Z,13.35
2022-12-08T06:58:21.703Z,10.65
2022-12-08T07:00:49.618Z,12.75
2022-12-08T07:03:19.053Z,12.38
2022-12-08T07:05:47.274Z,12.77
2022-12-08T07:08:15.371Z,12.45
2022-12-08T07:10:43.733Z,12.02
2022-12-08T07:13:11.644Z,12.20
2022-12-08T07:15:39.534Z,12.90
2022-12-08T07:18:07.472Z,12.68
2022-12-08T07:20:36.792Z,12.98
2022-12-08T07:23:04.709Z,12.43
2022-12-08T07:25:32.621Z,12.57
2022-12-08T07:28:00.818Z,12.63
2022-12-08T07:30:28.839Z,12.77
2022-12-08T07:32:56.921Z,13.73
2022-12-08T07:35:24.770Z,13.70
2022-12-08T07:37:54.315Z,13.88
2022-12-08T07:40:22.186Z,14.10
2022-12-08T07:42:50.061Z,12.27
2022-12-08T07:45:18.236Z,12.20
2022-12-08T07:47:46.096Z,11.32
2022-12-08T07:50:13.857Z,12.27
2022-12-08T07:52:41.632Z,11.52
2022-12-08T07:55:11.333Z,12.00
2022-12-08T07:57:39.176Z,10.25
2022-12-08T08:00:08.545Z,10.40
2022-12-08T08:02:42.770Z,12.10
2022-12-08T08:05:12.920Z,12.32
2022-12-08T08:07:43.746Z,10.43
2022-12-08T08:10:16.651Z,12.98
2022-12-08T08:12:44.557Z,11.35
2022-12-08T08:15:13.345Z,9.30
2022-12-08T08:17:42.242Z,12.20
2022-12-08T08:20:11.393Z,11.73
2022-12-08T08:22:39.168Z,12.57
2022-12-08T08:25:07.334Z,11.65
2022-12-08T08:27:36.844Z,9.73
2022-12-08T08:30:05.643Z,11.88
2022-12-08T08:32:34.721Z,11.80
2022-12-08T08:35:05.271Z,13.63
2022-12-08T08:37:33.519Z,12.88
2022-12-08T08:40:01.844Z,13.52
2022-12-08T08:42:30.196Z,13.77
2022-12-08T08:44:59.469Z,14.95
2022-12-08T08:47:27.398Z,16.55
2022-12-08T08:49:55.410Z,14.18
2022-12-08T08:52:23.327Z,12.68
2022-12-08T08:54:51.263Z,14.55
2022-12-08T08:57:25.108Z,15.75
2022-12-08T08:59:53.367Z,14.82
2022-12-08T09:02:23.027Z,16.27
2022-12-08T09:04:50.884Z,16.30
2022-12-08T09:07:18.877Z,15.90
2022-12-08T09:09:47.857Z,17.40
2022-12-08T09:12:15.856Z,18.23
2022-12-08T09:14:44.423Z,17.15
2022-12-08T09:17:12.402Z,15.32
2022-12-08T09:19:41.826Z,15.80
2022-12-08T09:22:09.760Z,15.25
2022-12-08T09:24:38.582Z,16.73
2022-12-08T09:27:06.398Z,17.15
2022-12-08T09:29:36.365Z,16.17
2022-12-08T09:32:04.649Z,13.63
2022-12-08T09:34:33.290Z,17.52
2022-12-08T09:37:02.402Z,14.65
2022-12-08T09:39:30.234Z,13.02
2022-12-08T09:42:02.173Z,14.55
2022-12-08T09:44:45.287Z,13.05
2022-12-08T09:47:30.727Z,12.85
2022-12-08T09:50:08.438Z,12.23
2022-12-08T09:55:20.986Z,13.48
2022-12-08T09:57:56.659Z,12.93
2022-12-08T10:00:25.842Z,11.18
2022-12-08T10:02:53.795Z,11.50
2022-12-08T10:05:23.950Z,12.85
2022-12-08T10:08:04.943Z,12.38
2022-12-08T10:10:40.384Z,9.95
2022-12-08T10:13:21.821Z,9.80
2022-12-08T10:15:59.979Z,10.13
2022-12-08T10:18:31.115Z,10.23
2022-12-08T10:21:06.428Z,10.48
2022-12-08T10:23:40.486Z,9.80
2022-12-08T10:26:14.775Z,10.35
2022-12-08T10:28:45.400Z,9.38
2022-12-08T10:31:22.997Z,10.88
2022-12-08T10:33:58.063Z,11.15
2022-12-08T10:36:45.921Z,10.45
2022-12-08T10:39:36.434Z,9.40
2022-12-08T10:42:10.876Z,13.20
2022-12-08T10:44:55.161Z,11.63
2022-12-08T10:47:26.752Z,9.73
2022-12-08T10:50:20.116Z,11.38
2022-12-08T10:55:24.348Z,8.48
2022-12-08T10:57:52.185Z,10.18
2022-12-08T11:00:22.892Z,9.55
2022-12-08T11:02:54.689Z,9.35
2022-12-08T11:05:29.404Z,9.50
2022-12-08T11:07:57.831Z,11.38
2022-12-08T11:10:35.475Z,10.63
2022-12-08T11:13:05.934Z,10.43
2022-12-08T11:15:41.073Z,9.98
2022-12-08T11:18:26.394Z,11.88
2022-12-08T11:21:03.705Z,11.82
2022-12-08T11:23:32.111Z,11.05
2022-12-08T11:26:08.649Z,10.65
2022-12-08T11:28:39.920Z,9.18
2022-12-08T11:31:17.507Z,10.70
2022-12-08T11:33:48.005Z,11.18
2022-12-08T11:36:17.326Z,9.60
2022-12-08T11:39:02.049Z,11.15
2022-12-08T11:41:37.032Z,9.27
2022-12-08T11:44:16.949Z,11.93
2022-12-08T11:46:53.558Z,10.85
2022-12-08T11:49:21.710Z,9.52
2022-12-08T11:51:54.717Z,9.10
2022-12-08T11:54:27.828Z,8.80
2022-12-08T11:56:59.088Z,10.13
2022-12-08T11:59:32.692Z,11.20
2022-12-08T12:02:01.963Z,11.80
2022-12-08T12:04:34.864Z,9.25
2022-12-08T12:07:41.431Z,9.38
2022-12-08T12:10:45.386Z,10.02
2022-12-08T12:13:36.192Z,10.68
2022-12-08T12:16:39.911Z,10.20
2022-12-08T12:21:45.572Z,9.00
2022-12-08T12:24:25.901Z,9.07
2022-12-08T12:26:59.705Z,9.70
2022-12-08T12:29:32.230Z,10.52
2022-12-08T12:32:04.122Z,10.90
2022-12-08T12:34:35.985Z,10.27
2022-12-08T12:37:08.834Z,10.18
2022-12-08T12:39:50.796Z,9.98
2022-12-08T12:42:38.928Z,11.93
2022-12-08T12:45:27.645Z,11.38
2022-12-08T12:48:26.493Z,9.88
2022-12-08T12:50:55.481Z,11.65
2022-12-08T12:53:49.705Z,8.18
2022-12-08T12:56:48.239Z,8.90
2022-12-08T12:59:37.296Z,8.80
2022-12-08T13:02:20.053Z,8.70
2022-12-08T13:04:58.019Z,9.95
2022-12-08T13:07:29.290Z,8.07
2022-12-08T13:09:59.945Z,10.25
2022-12-08T13:12:28.243Z,10.40
2022-12-08T13:15:03.698Z,9.13
2022-12-08T13:17:34.785Z,9.75
2022-12-08T13:20:06.326Z,9.57
2022-12-08T13:23:01.821Z,9.02
2022-12-08T13:26:14.207Z,8.13
2022-12-08T13:29:20.489Z,6.78
2022-12-08T13:31:52.198Z,8.27
2022-12-08T13:34:28.607Z,8.30
2022-12-08T13:37:03.588Z,8.88
2022-12-08T13:39:38.520Z,8.90
2022-12-08T13:42:16.805Z,9.32
2022-12-08T13:45:24.083Z,8.55
2022-12-08T13:47:59.858Z,7.32
2022-12-08T13:54:45.462Z,9.05
2022-12-08T13:59:24.255Z,8.07
2022-12-08T14:01:52.779Z,9.70
2022-12-08T14:04:42.621Z,7.65
2022-12-08T14:07:13.008Z,7.93
2022-12-08T14:09:41.456Z,7.80
2022-12-08T14:12:16.730Z,9.48
2022-12-08T14:15:03.111Z,8.77
2022-12-08T14:17:32.359Z,8.63
2022-12-08T14:20:02.004Z,9.93
2022-12-08T14:22:36.196Z,9.02
2022-12-08T14:25:06.481Z,8.43
2022-12-08T14:27:37.094Z,8.90
2022-12-08T14:30:08.258Z,8.15
2022-12-08T14:32:39.895Z,9.18
2022-12-08T14:35:21.051Z,9.40
2022-12-08T14:37:53.838Z,8.90
2022-12-08T14:40:25.413Z,9.20
2022-12-08T14:43:06.160Z,7.53
2022-12-08T14:45:35.066Z,7.55
2022-12-08T14:48:21.662Z,7.45
2022-12-08T14:51:01.796Z,8.15
2022-12-08T14:53:38.068Z,8.13
2022-12-08T14:56:10.245Z,6.85
2022-12-08T14:58:38.222Z,8.27
2022-12-08T15:01:10.483Z,8.52
2022-12-08T15:03:38.795Z,7.50
2022-12-08T15:06:09.174Z,9.85
2022-12-08T15:08:53.314Z,9.05
2022-12-08T15:11:35.634Z,8.32
2022-12-08T15:14:03.902Z,7.57
2022-12-08T15:16:38.972Z,8.38
2022-12-08T15:19:17.071Z,8.93
2022-12-08T15:21:47.307Z,8.68
2022-12-08T15:24:16.788Z,8.23
2022-12-08T15:26:46.834Z,8.23
2022-12-08T15:29:21.356Z,8.85
2022-12-08T15:31:49.571Z,8.35
2022-12-08T15:34:17.512Z,9.38
2022-12-08T15:36:45.780Z,9.35
2022-12-08T15:39:29.445Z,8.43
2022-12-08T15:41:57.420Z,8.05
2022-12-08T15:44:25.223Z,9.35
2022-12-08T15:46:54.407Z,9.95
2022-12-08T15:49:24.382Z,7.35
2022-12-08T15:52:00.592Z,8.98
2022-12-08T15:54:37.308Z,7.20
2022-12-08T15:57:35.883Z,8.80
2022-12-08T15:59:54.253Z,8.52
2022-12-08T16:02:23.043Z,9.43
2022-12-08T16:07:41.658Z,9.80
2022-12-08T16:10:18.036Z,7.65
2022-12-08T16:15:59.885Z,7.32
2022-12-08T16:18:31.233Z,8.63
2022-12-08T16:23:48.020Z,8.40
2022-12-08T16:26:49.097Z,7.60
2022-12-08T16:29:09.465Z,7.88
2022-12-08T16:31:37.647Z,9.40
2022-12-08T16:34:05.637Z,8.73
2022-12-08T16:36:33.706Z,8.70
2022-12-08T16:39:01.694Z,7.53
2022-12-08T16:41:48.245Z,9.23
2022-12-08T16:44:16.445Z,8.30
2022-12-08T16:46:44.382Z,8.52
2022-12-08T16:49:12.330Z,8.93
2022-12-08T16:51:42.745Z,8.27
2022-12-08T16:54:10.721Z,8.52
2022-12-08T16:56:40.045Z,8.75
2022-12-08T16:59:08.238Z,7.53
2022-12-08T17:01:36.452Z,7.65
2022-12-08T17:04:30.351Z,8.73
2022-12-08T17:06:53.009Z,7.72
2022-12-08T17:09:20.971Z,8.45
2022-12-08T17:11:50.264Z,6.93
2022-12-08T17:14:18.223Z,7.15
2022-12-08T17:16:46.504Z,7.78
2022-12-08T17:19:15.878Z,8.15
2022-12-08T17:21:46.295Z,10.68
2022-12-08T17:24:18.600Z,9.60
2022-12-08T17:26:51.730Z,8.32
2022-12-08T17:29:19.682Z,7.97
2022-12-08T17:31:47.526Z,8.10
2022-12-08T17:34:15.492Z,8.60
2022-12-08T17:36:43.693Z,9.13
2022-12-08T17:39:18.383Z,8.55
2022-12-08T17:41:47.642Z,9.20
2022-12-08T17:44:21.512Z,7.97
2022-12-08T17:46:52.937Z,7.10
2022-12-08T17:49:24.529Z,8.95
2022-12-08T17:51:55.105Z,8.27
2022-12-08T17:54:23.428Z,8.73
2022-12-08T17:56:51.775Z,8.23
2022-12-08T17:59:21.159Z,8.48
2022-12-08T18:01:49.143Z,8.13
2022-12-08T18:04:17.119Z,7.35
2022-12-08T18:06:45.027Z,7.75
2022-12-08T18:09:13.234Z,9.10
2022-12-08T18:11:41.493Z,9.73
2022-12-08T18:14:10.509Z,9.82
2022-12-08T18:16:41.819Z,8.02
2022-12-08T18:19:10.808Z,7.97
2022-12-08T18:21:39.451Z,7.78
2022-12-08T18:24:08.405Z,8.10
2022-12-08T18:26:36.819Z,7.10
2022-12-08T18:29:04.806Z,8.77
2022-12-08T18:31:32.767Z,7.43
2022-12-08T18:34:02.009Z,8.15
2022-12-08T18:36:29.809Z,7.88
2022-12-08T18:38:57.889Z,9.32
2022-12-08T18:41:26.901Z,7.60
2022-12-08T18:43:57.313Z,8.73
2022-12-08T18:46:25.780Z,9.63
2022-12-08T18:48:54.038Z,12.30
2022-12-08T18:51:25.315Z,7.35
2022-12-08T18:53:54.063Z,8.00
2022-12-08T18:56:24.506Z,8.18
2022-12-08T18:58:52.460Z,8.13
2022-12-08T19:01:20.639Z,7.18
2022-12-08T19:06:40.369Z,7.75
2022-12-08T19:09:09.130Z,9.10
2022-12-08T19:11:36.990Z,8.35
2022-12-08T19:14:08.686Z,9.43
2022-12-08T19:16:36.952Z,8.23
2022-12-08T19:19:05.006Z,8.35
2022-12-08T19:21:33.366Z,8.75
2022-12-08T19:24:03.374Z,8.52
2022-12-08T19:26:31.376Z,8.60
2022-12-08T19:28:59.475Z,9.18
2022-12-08T19:31:27.765Z,10.25
2022-12-08T19:33:55.726Z,8.52
2022-12-08T19:36:26.031Z,9.13
2022-12-08T19:39:15.247Z,8.90
2022-12-08T19:42:04.189Z,8.40
2022-12-08T19:44:49.308Z,8.18
2022-12-08T19:47:17.472Z,9.93
2022-12-08T19:49:46.274Z,10.40
2022-12-08T19:52:14.231Z,9.65
2022-12-08T19:54:42.316Z,9.38
2022-12-08T19:57:11.806Z,10.80
2022-12-08T19:59:39.897Z,9.80
2022-12-08T20:02:08.802Z,8.75
2022-12-08T20:04:36.802Z,9.85
2022-12-08T20:07:04.803Z,9.10
2022-12-08T20:09:32.759Z,9.40
2022-12-08T20:12:00.687Z,9.55
2022-12-08T20:14:29.924Z,9.00
2022-12-08T20:16:57.896Z,8.45
2022-12-08T20:19:25.773Z,10.50
2022-12-08T20:21:53.621Z,10.52
2022-12-08T20:24:21.759Z,10.48
2022-12-08T20:26:49.851Z,10.60
2022-12-08T20:29:18.749Z,9.77
2022-12-08T20:31:48.106Z,9.80
2022-12-08T20:34:16.764Z,10.18
2022-12-08T20:36:45.216Z,11.63
2022-12-08T20:39:15.062Z,10.63
2022-12-08T20:41:43.273Z,11.10
2022-12-08T20:44:11.370Z,9.93
2022-12-08T20:46:40.477Z,11.35
2022-12-08T20:49:12.236Z,10.82
2022-12-08T20:51:41.550Z,11.50
2022-12-08T20:54:09.683Z,9.45
2022-12-08T20:56:38.339Z,8.98
2022-12-08T20:59:08.697Z,10.60
2022-12-08T21:01:36.661Z,11.52
2022-12-08T21:04:05.051Z,11.20
2022-12-08T21:06:34.479Z,10.95
2022-12-08T21:09:02.681Z,10.77
2022-12-08T21:11:30.887Z,10.40
2022-12-08T21:13:59.109Z,11.80
2022-12-08T21:16:27.035Z,14.10
2022-12-08T21:18:55.068Z,13.50
2022-12-08T21:21:23.262Z,13.15
2022-12-08T21:23:52.699Z,15.38
2022-12-08T21:26:23.245Z,13.82
2022-12-08T21:28:51.219Z,14.05
2022-12-08T21:31:21.672Z,11.88
2022-12-08T21:33:50.221Z,10.38
2022-12-08T21:36:21.457Z,9.60
2022-12-08T21:38:50.087Z,9.73
2022-12-08T21:41:41.717Z,9.55
2022-12-08T21:44:12.237Z,10.20
2022-12-08T21:46:40.667Z,8.82
2022-12-08T21:49:08.990Z,10.45
2022-12-08T21:51:41.461Z,10.90
2022-12-08T21:54:13.574Z,11.40
2022-12-08T21:56:48.344Z,10.13
2022-12-08T21:59:16.776Z,11.85
2022-12-08T22:01:44.820Z,11.90
2022-12-08T22:04:13.690Z,13.07
2022-12-08T22:06:41.842Z,9.77
2022-12-08T22:09:13.545Z,11.02
2022-12-08T22:11:41.740Z,9.82
2022-12-08T22:14:14.899Z,11.50
2022-12-08T22:16:43.701Z,10.48
2022-12-08T22:19:12.187Z,10.15
2022-12-08T22:21:40.324Z,11.48
2022-12-08T22:24:09.002Z,11.43
2022-12-08T22:26:37.123Z,10.48
2022-12-08T22:29:04.945Z,10.15
2022-12-08T22:31:34.363Z,10.93
2022-12-08T22:34:02.397Z,11.15
2022-12-08T22:36:30.494Z,12.90
2022-12-08T22:38:58.389Z,11.73
2022-12-08T22:41:26.382Z,12.05
2022-12-08T22:43:54.259Z,11.40
2022-12-08T22:46:24.465Z,12.60
2022-12-08T22:48:55.377Z,11.63
2022-12-08T22:51:23.279Z,11.65
2022-12-08T22:53:51.457Z,12.15
2022-12-08T22:56:20.110Z,12.23
2022-12-08T22:58:47.933Z,12.13
2022-12-08T23:01:27.255Z,11.23
2022-12-08T23:03:56.856Z,15.05
2022-12-08T23:06:25.479Z,12.95
2022-12-08T23:08:54.119Z,12.98
2022-12-08T23:11:24.426Z,13.05
2022-12-08T23:13:52.657Z,12.32
2022-12-08T23:16:20.859Z,13.15
2022-12-08T23:18:48.886Z,12.77
2022-12-08T23:21:20.413Z,13.40
2022-12-08T23:23:48.449Z,14.88
2022-12-08T23:26:19.011Z,12.15
2022-12-08T23:28:47.391Z,12.30
2022-12-08T23:31:16.069Z,13.68
2022-12-08T23:33:44.439Z,13.23
2022-12-08T23:36:13.901Z,14.55
2022-12-08T23:38:43.769Z,13.02
2022-12-08T23:41:14.244Z,14.05
2022-12-08T23:43:45.499Z,13.45
2022-12-08T23:46:13.887Z,10.90
2022-12-08T23:48:42.161Z,11.98
2022-12-08T23:51:10.559Z,16.52
2022-12-08T23:53:39.084Z,12.68
2022-12-08T23:56:10.597Z,14.13
2022-12-08T23:58:39.346Z,14.35
